PWSweather.com
Personal Weather Stations
Station Observations
WD4JKH
Forsyth, GA 31029

Forsyth, GA 31029

Lat: 33.033225, Lon: -83.927995

Elevation: 709

Station Type: Davis Vantage VUE

High Low Average
Temperature 43.9°F6.6°C 40.3°F4.6°C 41.7°F5.4°C
Dew Point 41.2°F5.1°C 38.1°F3.4°C 40.1°F4.5°C
Winds 17.7 mph 28.5 kmh 1.0 mph 1.6 kmh 6.0 mph NE9.7 kmh NE
Wind Gusts 27.0 mph43.5 kmh 4.0 mph6.4 kmh 15.0 mph24.1 kmh
Humidity 97% 89% 94%
Pressure 30.45 in1031.2 mb 30.12 in1020.0 mb -
Precipitation 0.95 in24.1 mm - -
Hour Temp Dew Point Humidity Winds Wind Gusts Pressure Precip Precip Rate Daily Precip Total
12:01 AM 43.8°F6.6°C 41.0°F5.0°C 90% 1.8 mph NE2.9 kmh NE 4.0 mph6.4 kmh 30.40 in1029.5 mb 0.00 in0.0 mm 0.00 in0.0 mm 0.01 in0.3 mm
12:06 AM 43.8°F6.6°C 41.1°F5.1°C 90% 1.0 mph NE1.6 kmh NE 4.0 mph6.4 kmh 30.40 in1029.5 mb 0.00 in0.0 mm 0.00 in0.0 mm 0.00 in0.0 mm
12:11 AM 43.8°F6.6°C 41.0°F5.0°C 90% 1.3 mph NE2.1 kmh NE 4.0 mph6.4 kmh 30.40 in1029.5 mb 0.00 in0.0 mm 0.00 in0.0 mm 0.00 in0.0 mm
12:16 AM 43.9°F6.6°C 41.1°F5.1°C 90% 2.2 mph NE3.5 kmh NE 4.0 mph6.4 kmh 30.40 in1029.5 mb 0.00 in0.0 mm 0.00 in0.0 mm 0.00 in0.0 mm
12:21 AM 43.9°F6.6°C 41.2°F5.1°C 90% 1.4 mph NE2.3 kmh NE 4.0 mph6.4 kmh 30.40 in1029.5 mb 0.00 in0.0 mm 0.00 in0.0 mm 0.00 in0.0 mm
12:26 AM 43.8°F6.6°C 41.0°F5.0°C 90% 1.9 mph NE3.1 kmh NE 5.0 mph8.0 kmh 30.40 in1029.5 mb 0.00 in0.0 mm 0.00 in0.0 mm 0.00 in0.0 mm
12:31 AM 43.8°F6.6°C 41.1°F5.1°C 90% 1.8 mph NE2.9 kmh NE 5.0 mph8.0 kmh 30.40 in1029.5 mb 0.00 in0.0 mm 0.00 in0.0 mm 0.00 in0.0 mm
12:36 AM 43.7°F6.5°C 40.9°F4.9°C 90% 2.2 mph NE3.5 kmh NE 5.0 mph8.0 kmh 30.40 in1029.5 mb 0.00 in0.0 mm 0.00 in0.0 mm 0.00 in0.0 mm
12:41 AM 43.7°F6.5°C 40.9°F4.9°C 90% 1.6 mph NE2.6 kmh NE 4.0 mph6.4 kmh 30.40 in1029.5 mb 0.00 in0.0 mm 0.00 in0.0 mm 0.00 in0.0 mm
12:46 AM 43.8°F6.6°C 41.1°F5.1°C 90% 1.6 mph NE2.6 kmh NE 4.0 mph6.4 kmh 30.40 in1029.5 mb 0.00 in0.0 mm 0.00 in0.0 mm 0.00 in0.0 mm
12:51 AM 43.8°F6.6°C 41.0°F5.0°C 90% 2.6 mph NE4.2 kmh NE 5.0 mph8.0 kmh 30.39 in1029.1 mb 0.00 in0.0 mm 0.00 in0.0 mm 0.00 in0.0 mm
12:56 AM 43.8°F6.6°C 41.1°F5.1°C 90% 1.0 mph NE1.6 kmh NE 5.0 mph8.0 kmh 30.39 in1029.1 mb 0.00 in0.0 mm 0.00 in0.0 mm 0.00 in0.0 mm
01:01 AM 43.8°F6.6°C 40.8°F4.9°C 89% 1.2 mph NE1.9 kmh NE 5.0 mph8.0 kmh 30.39 in1029.1 mb 0.00 in0.0 mm 0.00 in0.0 mm 0.00 in0.0 mm
01:06 AM 43.8°F6.6°C 41.0°F5.0°C 90% 2.4 mph NE3.9 kmh NE 5.0 mph8.0 kmh 30.39 in1029.1 mb 0.00 in0.0 mm 0.00 in0.0 mm 0.00 in0.0 mm
01:11 AM 43.8°F6.6°C 41.0°F5.0°C 90% 2.7 mph NE4.3 kmh NE 5.0 mph8.0 kmh 30.39 in1029.1 mb 0.00 in0.0 mm 0.00 in0.0 mm 0.00 in0.0 mm
01:16 AM 43.8°F6.6°C 41.0°F5.0°C 90% 2.0 mph NE3.2 kmh NE 5.0 mph8.0 kmh 30.39 in1029.1 mb 0.00 in0.0 mm 0.00 in0.0 mm 0.00 in0.0 mm
01:21 AM 43.7°F6.5°C 40.9°F4.9°C 90% 1.0 mph NE1.6 kmh NE 5.0 mph8.0 kmh 30.39 in1029.1 mb 0.00 in0.0 mm 0.00 in0.0 mm 0.00 in0.0 mm
01:26 AM 43.7°F6.5°C 40.9°F4.9°C 90% 1.2 mph NE1.9 kmh NE 5.0 mph8.0 kmh 30.39 in1029.1 mb 0.00 in0.0 mm 0.00 in0.0 mm 0.00 in0.0 mm
01:30 AM 43.7°F6.5°C 41.2°F5.1°C 91% 1.6 mph NE2.6 kmh NE 5.0 mph8.0 kmh 30.39 in1029.1 mb 0.00 in0.0 mm 0.00 in0.0 mm 0.00 in0.0 mm
01:35 AM 43.7°F6.5°C 41.2°F5.1°C 91% 1.1 mph NE1.8 kmh NE 5.0 mph8.0 kmh 30.39 in1029.1 mb 0.00 in0.0 mm 0.00 in0.0 mm 0.00 in0.0 mm
01:40 AM 43.7°F6.5°C 41.2°F5.1°C 91% 1.6 mph NE2.6 kmh NE 5.0 mph8.0 kmh 30.39 in1029.1 mb 0.00 in0.0 mm 0.00 in0.0 mm 0.00 in0.0 mm
01:45 AM 43.7°F6.5°C 41.2°F5.1°C 91% 2.4 mph NE3.9 kmh NE 5.0 mph8.0 kmh 30.38 in1028.8 mb 0.00 in0.0 mm 0.00 in0.0 mm 0.00 in0.0 mm
01:50 AM 43.7°F6.5°C 41.2°F5.1°C 91% 1.2 mph NE1.9 kmh NE 5.0 mph8.0 kmh 30.38 in1028.8 mb 0.00 in0.0 mm 0.00 in0.0 mm 0.00 in0.0 mm
01:55 AM 43.7°F6.5°C 40.9°F4.9°C 90% 3.0 mph NE4.8 kmh NE 6.0 mph9.7 kmh 30.38 in1028.8 mb 0.00 in0.0 mm 0.00 in0.0 mm 0.00 in0.0 mm
02:00 AM 43.7°F6.5°C 41.0°F5.0°C 90% 2.5 mph NE4.0 kmh NE 6.0 mph9.7 kmh 30.38 in1028.8 mb 0.00 in0.0 mm 0.00 in0.0 mm 0.00 in0.0 mm
02:06 AM 43.6°F6.4°C 40.8°F4.9°C 90% 3.8 mph NE6.1 kmh NE 6.0 mph9.7 kmh 30.38 in1028.8 mb 0.00 in0.0 mm 0.00 in0.0 mm 0.00 in0.0 mm
02:11 AM 43.6°F6.4°C 40.8°F4.9°C 90% 5.2 mph NE8.4 kmh NE 8.0 mph12.9 kmh 30.39 in1029.1 mb 0.00 in0.0 mm 0.00 in0.0 mm 0.00 in0.0 mm
02:16 AM 43.6°F6.4°C 40.9°F4.9°C 90% 2.3 mph NE3.7 kmh NE 8.0 mph12.9 kmh 30.39 in1029.1 mb 0.00 in0.0 mm 0.00 in0.0 mm 0.00 in0.0 mm
02:21 AM 43.6°F6.4°C 40.9°F4.9°C 90% 2.6 mph NE4.2 kmh NE 8.0 mph12.9 kmh 30.39 in1029.1 mb 0.00 in0.0 mm 0.00 in0.0 mm 0.00 in0.0 mm
02:26 AM 43.5°F6.4°C 40.7°F4.8°C 90% 2.1 mph NE3.4 kmh NE 8.0 mph12.9 kmh 30.39 in1029.1 mb 0.00 in0.0 mm 0.00 in0.0 mm 0.00 in0.0 mm
02:31 AM 43.5°F6.4°C 40.8°F4.9°C 90% 1.5 mph NE2.4 kmh NE 7.0 mph11.3 kmh 30.39 in1029.1 mb 0.00 in0.0 mm 0.00 in0.0 mm 0.00 in0.0 mm
02:36 AM 43.6°F6.4°C 40.8°F4.9°C 90% 1.7 mph ENE2.7 kmh ENE 7.0 mph11.3 kmh 30.39 in1029.1 mb 0.00 in0.0 mm 0.00 in0.0 mm 0.00 in0.0 mm
02:41 AM 43.6°F6.4°C 40.8°F4.9°C 90% 2.1 mph NE3.4 kmh NE 7.0 mph11.3 kmh 30.39 in1029.1 mb 0.00 in0.0 mm 0.00 in0.0 mm 0.00 in0.0 mm
02:46 AM 43.5°F6.4°C 40.7°F4.8°C 90% 1.3 mph NE2.1 kmh NE 7.0 mph11.3 kmh 30.40 in1029.5 mb 0.00 in0.0 mm 0.00 in0.0 mm 0.00 in0.0 mm
02:51 AM 43.5°F6.4°C 40.8°F4.9°C 90% 2.6 mph NE4.2 kmh NE 6.0 mph9.7 kmh 30.39 in1029.1 mb 0.00 in0.0 mm 0.00 in0.0 mm 0.00 in0.0 mm
02:56 AM 43.4°F6.3°C 40.9°F4.9°C 91% 2.4 mph NE3.9 kmh NE 6.0 mph9.7 kmh 30.39 in1029.1 mb 0.00 in0.0 mm 0.00 in0.0 mm 0.00 in0.0 mm
03:01 AM 43.2°F6.2°C 41.0°F5.0°C 92% 2.6 mph NE4.2 kmh NE 6.0 mph9.7 kmh 30.39 in1029.1 mb 0.00 in0.0 mm 0.00 in0.0 mm 0.00 in0.0 mm
03:06 AM 43.1°F6.2°C 40.9°F4.9°C 92% 1.6 mph NE2.6 kmh NE 6.0 mph9.7 kmh 30.39 in1029.1 mb 0.00 in0.0 mm 0.00 in0.0 mm 0.00 in0.0 mm
03:11 AM 43.0°F6.1°C 40.8°F4.9°C 92% 3.2 mph NE5.1 kmh NE 6.0 mph9.7 kmh 30.39 in1029.1 mb 0.01 in0.3 mm 0.12 in3.0 mm 0.01 in0.3 mm
03:16 AM 42.9°F6.1°C 41.0°F5.0°C 93% 3.6 mph NE5.8 kmh NE 7.0 mph11.3 kmh 30.39 in1029.1 mb 0.01 in0.3 mm 0.00 in0.0 mm 0.01 in0.3 mm
03:21 AM 42.9°F6.1°C 41.0°F5.0°C 93% 2.1 mph NE3.4 kmh NE 7.0 mph11.3 kmh 30.39 in1029.1 mb 0.01 in0.3 mm 0.00 in0.0 mm 0.01 in0.3 mm
03:26 AM 42.9°F6.1°C 41.0°F5.0°C 93% 2.2 mph NE3.5 kmh NE 7.0 mph11.3 kmh 30.39 in1029.1 mb 0.01 in0.3 mm 0.00 in0.0 mm 0.01 in0.3 mm
03:31 AM 42.8°F6.0°C 40.9°F4.9°C 93% 2.0 mph NE3.2 kmh NE 7.0 mph11.3 kmh 30.39 in1029.1 mb 0.01 in0.3 mm 0.00 in0.0 mm 0.01 in0.3 mm
03:36 AM 42.8°F6.0°C 40.9°F4.9°C 93% 1.4 mph NE2.3 kmh NE 6.0 mph9.7 kmh 30.40 in1029.5 mb 0.01 in0.3 mm 0.00 in0.0 mm 0.01 in0.3 mm
03:41 AM 42.7°F5.9°C 40.8°F4.9°C 93% 2.6 mph NE4.2 kmh NE 6.0 mph9.7 kmh 30.40 in1029.5 mb 0.01 in0.3 mm 0.00 in0.0 mm 0.01 in0.3 mm
03:46 AM 42.7°F5.9°C 40.8°F4.9°C 93% 2.1 mph NE3.4 kmh NE 6.0 mph9.7 kmh 30.39 in1029.1 mb 0.01 in0.3 mm 0.00 in0.0 mm 0.01 in0.3 mm
03:51 AM 42.7°F5.9°C 40.8°F4.9°C 93% 3.2 mph NE5.1 kmh NE 6.0 mph9.7 kmh 30.39 in1029.1 mb 0.01 in0.3 mm 0.00 in0.0 mm 0.01 in0.3 mm
03:56 AM 42.6°F5.9°C 40.7°F4.8°C 93% 2.7 mph NE4.3 kmh NE 7.0 mph11.3 kmh 30.40 in1029.5 mb 0.01 in0.3 mm 0.00 in0.0 mm 0.01 in0.3 mm
04:01 AM 42.6°F5.9°C 40.7°F4.8°C 93% 4.3 mph NE6.9 kmh NE 8.0 mph12.9 kmh 30.39 in1029.1 mb 0.01 in0.3 mm 0.00 in0.0 mm 0.01 in0.3 mm
04:06 AM 42.6°F5.9°C 40.4°F4.7°C 92% 4.7 mph NE7.6 kmh NE 8.0 mph12.9 kmh 30.39 in1029.1 mb 0.01 in0.3 mm 0.00 in0.0 mm 0.01 in0.3 mm
04:11 AM 42.5°F5.8°C 40.3°F4.6°C 92% 4.5 mph NE7.2 kmh NE 8.0 mph12.9 kmh 30.39 in1029.1 mb 0.00 in0.0 mm 0.00 in0.0 mm 0.01 in0.3 mm
04:16 AM 42.5°F5.8°C 40.3°F4.6°C 92% 3.2 mph NE5.1 kmh NE 8.0 mph12.9 kmh 30.39 in1029.1 mb 0.00 in0.0 mm 0.00 in0.0 mm 0.01 in0.3 mm
04:21 AM 42.4°F5.8°C 40.2°F4.6°C 92% 2.6 mph NE4.2 kmh NE 8.0 mph12.9 kmh 30.39 in1029.1 mb 0.00 in0.0 mm 0.00 in0.0 mm 0.01 in0.3 mm
04:26 AM 42.4°F5.8°C 40.2°F4.6°C 92% 1.8 mph NE2.9 kmh NE 8.0 mph12.9 kmh 30.40 in1029.5 mb 0.01 in0.3 mm 0.12 in3.0 mm 0.02 in0.5 mm
04:31 AM 42.4°F5.8°C 40.2°F4.6°C 92% 2.1 mph NE3.4 kmh NE 8.0 mph12.9 kmh 30.40 in1029.5 mb 0.01 in0.3 mm 0.00 in0.0 mm 0.02 in0.5 mm
04:36 AM 42.3°F5.7°C 40.1°F4.5°C 92% 2.3 mph NE3.7 kmh NE 8.0 mph12.9 kmh 30.40 in1029.5 mb 0.01 in0.3 mm 0.00 in0.0 mm 0.02 in0.5 mm
04:41 AM 42.2°F5.7°C 40.0°F4.4°C 92% 4.6 mph NE7.4 kmh NE 8.0 mph12.9 kmh 30.39 in1029.1 mb 0.01 in0.3 mm 0.00 in0.0 mm 0.02 in0.5 mm
04:46 AM 42.2°F5.7°C 40.0°F4.4°C 92% 3.1 mph NE5.0 kmh NE 8.0 mph12.9 kmh 30.39 in1029.1 mb 0.01 in0.3 mm 0.00 in0.0 mm 0.02 in0.5 mm
04:51 AM 42.1°F5.6°C 39.9°F4.4°C 92% 2.7 mph NE4.3 kmh NE 8.0 mph12.9 kmh 30.40 in1029.5 mb 0.01 in0.3 mm 0.00 in0.0 mm 0.02 in0.5 mm
04:56 AM 42.1°F5.6°C 39.9°F4.4°C 92% 3.1 mph NE5.0 kmh NE 8.0 mph12.9 kmh 30.39 in1029.1 mb 0.01 in0.3 mm 0.00 in0.0 mm 0.02 in0.5 mm
05:01 AM 42.0°F5.6°C 39.8°F4.3°C 92% 3.9 mph NE6.3 kmh NE 8.0 mph12.9 kmh 30.39 in1029.1 mb 0.01 in0.3 mm 0.00 in0.0 mm 0.02 in0.5 mm
05:06 AM 41.9°F5.5°C 39.7°F4.3°C 92% 5.9 mph NE9.5 kmh NE 8.0 mph12.9 kmh 30.39 in1029.1 mb 0.01 in0.3 mm 0.00 in0.0 mm 0.02 in0.5 mm
05:11 AM 41.9°F5.5°C 40.0°F4.4°C 93% 4.1 mph NE6.6 kmh NE 9.0 mph14.5 kmh 30.39 in1029.1 mb 0.01 in0.3 mm 0.00 in0.0 mm 0.02 in0.5 mm
05:16 AM 41.8°F5.4°C 39.9°F4.4°C 93% 6.3 mph NE10.1 kmh NE 9.0 mph14.5 kmh 30.38 in1028.8 mb 0.01 in0.3 mm 0.00 in0.0 mm 0.02 in0.5 mm
05:21 AM 41.7°F5.4°C 39.8°F4.3°C 93% 7.6 mph NE12.2 kmh NE 11.0 mph17.7 kmh 30.38 in1028.8 mb 0.01 in0.3 mm 0.00 in0.0 mm 0.02 in0.5 mm
05:26 AM 41.7°F5.4°C 39.8°F4.3°C 93% 5.5 mph NE8.9 kmh NE 13.0 mph20.9 kmh 30.38 in1028.8 mb 0.00 in0.0 mm 0.00 in0.0 mm 0.02 in0.5 mm
05:31 AM 41.7°F5.4°C 39.8°F4.3°C 93% 3.8 mph NE6.1 kmh NE 13.0 mph20.9 kmh 30.38 in1028.8 mb 0.00 in0.0 mm 0.00 in0.0 mm 0.02 in0.5 mm
05:36 AM 41.7°F5.4°C 39.8°F4.3°C 93% 4.4 mph NE7.1 kmh NE 13.0 mph20.9 kmh 30.38 in1028.8 mb 0.00 in0.0 mm 0.00 in0.0 mm 0.02 in0.5 mm
05:41 AM 41.6°F5.3°C 39.7°F4.3°C 93% 2.0 mph NE3.2 kmh NE 13.0 mph20.9 kmh 30.38 in1028.8 mb 0.00 in0.0 mm 0.00 in0.0 mm 0.02 in0.5 mm
05:46 AM 41.6°F5.3°C 39.7°F4.3°C 93% 4.2 mph NE6.8 kmh NE 8.0 mph12.9 kmh 30.38 in1028.8 mb 0.00 in0.0 mm 0.00 in0.0 mm 0.02 in0.5 mm
05:51 AM 41.6°F5.3°C 39.7°F4.3°C 93% 2.1 mph ENE3.4 kmh ENE 8.0 mph12.9 kmh 30.38 in1028.8 mb 0.00 in0.0 mm 0.00 in0.0 mm 0.02 in0.5 mm
05:56 AM 41.6°F5.3°C 39.7°F4.3°C 93% 2.0 mph ENE3.2 kmh ENE 8.0 mph12.9 kmh 30.38 in1028.8 mb 0.00 in0.0 mm 0.00 in0.0 mm 0.02 in0.5 mm
06:01 AM 41.6°F5.3°C 39.7°F4.3°C 93% 1.9 mph NE3.1 kmh NE 8.0 mph12.9 kmh 30.38 in1028.8 mb 0.00 in0.0 mm 0.00 in0.0 mm 0.02 in0.5 mm
06:06 AM 41.6°F5.3°C 39.7°F4.3°C 93% 3.6 mph ENE5.8 kmh ENE 7.0 mph11.3 kmh 30.38 in1028.8 mb 0.00 in0.0 mm 0.00 in0.0 mm 0.02 in0.5 mm
06:11 AM 41.5°F5.3°C 39.6°F4.2°C 93% 3.0 mph NE4.8 kmh NE 6.0 mph9.7 kmh 30.38 in1028.8 mb 0.00 in0.0 mm 0.00 in0.0 mm 0.02 in0.5 mm
06:16 AM 41.5°F5.3°C 39.6°F4.2°C 93% 3.7 mph NE6.0 kmh NE 6.0 mph9.7 kmh 30.37 in1028.4 mb 0.00 in0.0 mm 0.00 in0.0 mm 0.02 in0.5 mm
06:21 AM 41.5°F5.3°C 39.6°F4.2°C 93% 4.6 mph NE7.4 kmh NE 9.0 mph14.5 kmh 30.37 in1028.4 mb 0.00 in0.0 mm 0.00 in0.0 mm 0.02 in0.5 mm
06:27 AM 41.5°F5.3°C 39.6°F4.2°C 93% 5.4 mph NE8.7 kmh NE 12.0 mph19.3 kmh 30.37 in1028.4 mb 0.00 in0.0 mm 0.00 in0.0 mm 0.02 in0.5 mm
06:30 AM 41.4°F5.2°C 39.5°F4.2°C 93% 5.8 mph NE9.3 kmh NE 12.0 mph19.3 kmh 30.36 in1028.1 mb 0.00 in0.0 mm 0.00 in0.0 mm 0.02 in0.5 mm
06:35 AM 41.4°F5.2°C 39.5°F4.2°C 93% 4.5 mph NE7.2 kmh NE 12.0 mph19.3 kmh 30.36 in1028.1 mb 0.00 in0.0 mm 0.00 in0.0 mm 0.02 in0.5 mm
06:40 AM 41.3°F5.2°C 39.4°F4.1°C 93% 5.7 mph ENE9.2 kmh ENE 12.0 mph19.3 kmh 30.37 in1028.4 mb 0.00 in0.0 mm 0.00 in0.0 mm 0.02 in0.5 mm
06:45 AM 41.3°F5.2°C 39.4°F4.1°C 93% 4.7 mph NE7.6 kmh NE 12.0 mph19.3 kmh 30.37 in1028.4 mb 0.00 in0.0 mm 0.00 in0.0 mm 0.02 in0.5 mm
06:51 AM 41.3°F5.2°C 39.4°F4.1°C 93% 4.2 mph NE6.8 kmh NE 12.0 mph19.3 kmh 30.37 in1028.4 mb 0.00 in0.0 mm 0.00 in0.0 mm 0.02 in0.5 mm
06:56 AM 41.2°F5.1°C 39.3°F4.1°C 93% 5.3 mph NE8.5 kmh NE 12.0 mph19.3 kmh 30.37 in1028.4 mb 0.00 in0.0 mm 0.00 in0.0 mm 0.02 in0.5 mm
07:01 AM 41.1°F5.1°C 39.2°F4.0°C 93% 6.4 mph NE10.3 kmh NE 12.0 mph19.3 kmh 30.37 in1028.4 mb 0.00 in0.0 mm 0.00 in0.0 mm 0.02 in0.5 mm
07:06 AM 41.1°F5.1°C 38.9°F3.8°C 92% 5.8 mph NE9.3 kmh NE 11.0 mph17.7 kmh 30.37 in1028.4 mb 0.00 in0.0 mm 0.00 in0.0 mm 0.02 in0.5 mm
07:11 AM 41.0°F5.0°C 38.8°F3.8°C 92% 3.3 mph NE5.3 kmh NE 11.0 mph17.7 kmh 30.37 in1028.4 mb 0.00 in0.0 mm 0.00 in0.0 mm 0.02 in0.5 mm
07:16 AM 40.9°F4.9°C 38.7°F3.7°C 92% 6.1 mph NE9.8 kmh NE 11.0 mph17.7 kmh 30.37 in1028.4 mb 0.00 in0.0 mm 0.00 in0.0 mm 0.02 in0.5 mm
07:21 AM 40.9°F4.9°C 38.7°F3.7°C 92% 4.9 mph NE7.9 kmh NE 11.0 mph17.7 kmh 30.37 in1028.4 mb 0.00 in0.0 mm 0.00 in0.0 mm 0.02 in0.5 mm
07:26 AM 40.8°F4.9°C 38.3°F3.5°C 91% 4.8 mph NE7.7 kmh NE 11.0 mph17.7 kmh 30.37 in1028.4 mb 0.00 in0.0 mm 0.00 in0.0 mm 0.02 in0.5 mm
07:31 AM 40.7°F4.8°C 38.2°F3.4°C 91% 5.1 mph NE8.2 kmh NE 11.0 mph17.7 kmh 30.38 in1028.8 mb 0.00 in0.0 mm 0.00 in0.0 mm 0.02 in0.5 mm
07:36 AM 40.7°F4.8°C 38.2°F3.4°C 91% 3.1 mph ENE5.0 kmh ENE 11.0 mph17.7 kmh 30.38 in1028.8 mb 0.00 in0.0 mm 0.00 in0.0 mm 0.02 in0.5 mm
07:41 AM 40.7°F4.8°C 38.2°F3.4°C 91% 2.3 mph NE3.7 kmh NE 11.0 mph17.7 kmh 30.38 in1028.8 mb 0.00 in0.0 mm 0.00 in0.0 mm 0.02 in0.5 mm
07:46 AM 40.6°F4.8°C 38.1°F3.4°C 91% 4.1 mph NE6.6 kmh NE 10.0 mph16.1 kmh 30.38 in1028.8 mb 0.01 in0.3 mm 0.12 in3.0 mm 0.03 in0.8 mm
07:51 AM 40.6°F4.8°C 38.2°F3.4°C 91% 4.3 mph ENE6.9 kmh ENE 10.0 mph16.1 kmh 30.38 in1028.8 mb 0.01 in0.3 mm 0.00 in0.0 mm 0.03 in0.8 mm
07:56 AM 40.6°F4.8°C 38.1°F3.4°C 91% 2.6 mph NE4.2 kmh NE 10.0 mph16.1 kmh 30.39 in1029.1 mb 0.01 in0.3 mm 0.00 in0.0 mm 0.03 in0.8 mm
08:01 AM 40.6°F4.8°C 38.1°F3.4°C 91% 4.2 mph NE6.8 kmh NE 10.0 mph16.1 kmh 30.40 in1029.5 mb 0.01 in0.3 mm 0.00 in0.0 mm 0.03 in0.8 mm
08:06 AM 40.6°F4.8°C 38.1°F3.4°C 91% 3.8 mph NE6.1 kmh NE 10.0 mph16.1 kmh 30.40 in1029.5 mb 0.01 in0.3 mm 0.00 in0.0 mm 0.03 in0.8 mm
08:11 AM 40.5°F4.7°C 38.3°F3.5°C 92% 4.4 mph NE7.1 kmh NE 10.0 mph16.1 kmh 30.40 in1029.5 mb 0.01 in0.3 mm 0.00 in0.0 mm 0.03 in0.8 mm
08:16 AM 40.5°F4.7°C 38.3°F3.5°C 92% 3.9 mph NE6.3 kmh NE 9.0 mph14.5 kmh 30.40 in1029.5 mb 0.01 in0.3 mm 0.00 in0.0 mm 0.03 in0.8 mm
08:21 AM 40.5°F4.7°C 38.3°F3.5°C 92% 4.3 mph NE6.9 kmh NE 9.0 mph14.5 kmh 30.40 in1029.5 mb 0.01 in0.3 mm 0.00 in0.0 mm 0.03 in0.8 mm
08:26 AM 40.5°F4.7°C 38.6°F3.7°C 93% 3.6 mph NE5.8 kmh NE 9.0 mph14.5 kmh 30.40 in1029.5 mb 0.01 in0.3 mm 0.00 in0.0 mm 0.03 in0.8 mm
08:31 AM 40.4°F4.7°C 38.5°F3.6°C 93% 7.7 mph NE12.4 kmh NE 12.0 mph19.3 kmh 30.40 in1029.5 mb 0.01 in0.3 mm 0.00 in0.0 mm 0.03 in0.8 mm
08:36 AM 40.3°F4.6°C 38.7°F3.7°C 94% 5.6 mph NE9.0 kmh NE 12.0 mph19.3 kmh 30.41 in1029.8 mb 0.01 in0.3 mm 0.00 in0.0 mm 0.03 in0.8 mm
08:41 AM 40.3°F4.6°C 38.7°F3.7°C 94% 4.1 mph NE6.6 kmh NE 12.0 mph19.3 kmh 30.41 in1029.8 mb 0.02 in0.5 mm 0.12 in3.0 mm 0.04 in1.0 mm
08:46 AM 40.3°F4.6°C 38.7°F3.7°C 94% 4.3 mph NE6.9 kmh NE 12.0 mph19.3 kmh 30.41 in1029.8 mb 0.01 in0.3 mm 0.00 in0.0 mm 0.04 in1.0 mm
08:51 AM 40.3°F4.6°C 38.7°F3.7°C 94% 3.6 mph NE5.8 kmh NE 11.0 mph17.7 kmh 30.42 in1030.1 mb 0.01 in0.3 mm 0.00 in0.0 mm 0.04 in1.0 mm
08:56 AM 40.3°F4.6°C 38.7°F3.7°C 94% 4.3 mph NE6.9 kmh NE 11.0 mph17.7 kmh 30.42 in1030.1 mb 0.01 in0.3 mm 0.00 in0.0 mm 0.04 in1.0 mm
09:01 AM 40.3°F4.6°C 38.7°F3.7°C 94% 3.7 mph NE6.0 kmh NE 10.0 mph16.1 kmh 30.43 in1030.5 mb 0.01 in0.3 mm 0.00 in0.0 mm 0.04 in1.0 mm
09:06 AM 40.4°F4.7°C 39.0°F3.9°C 95% 1.9 mph NE3.1 kmh NE 10.0 mph16.1 kmh 30.43 in1030.5 mb 0.01 in0.3 mm 0.00 in0.0 mm 0.04 in1.0 mm
09:11 AM 40.4°F4.7°C 39.1°F3.9°C 95% 4.3 mph NE6.9 kmh NE 8.0 mph12.9 kmh 30.43 in1030.5 mb 0.01 in0.3 mm 0.00 in0.0 mm 0.04 in1.0 mm
09:16 AM 40.4°F4.7°C 39.0°F3.9°C 95% 5.6 mph NE9.0 kmh NE 9.0 mph14.5 kmh 30.43 in1030.5 mb 0.01 in0.3 mm 0.00 in0.0 mm 0.04 in1.0 mm
09:21 AM 40.5°F4.7°C 39.2°F4.0°C 95% 3.2 mph NE5.1 kmh NE 9.0 mph14.5 kmh 30.43 in1030.5 mb 0.01 in0.3 mm 0.00 in0.0 mm 0.04 in1.0 mm
09:26 AM 40.4°F4.7°C 39.0°F3.9°C 95% 5.4 mph NE8.7 kmh NE 9.0 mph14.5 kmh 30.44 in1030.8 mb 0.02 in0.5 mm 0.12 in3.0 mm 0.05 in1.3 mm
09:31 AM 40.5°F4.7°C 39.1°F3.9°C 95% 4.4 mph NE7.1 kmh NE 9.0 mph14.5 kmh 30.44 in1030.8 mb 0.02 in0.5 mm 0.00 in0.0 mm 0.05 in1.3 mm
09:36 AM 40.5°F4.7°C 39.1°F3.9°C 95% 2.9 mph NE4.7 kmh NE 8.0 mph12.9 kmh 30.45 in1031.2 mb 0.02 in0.5 mm 0.00 in0.0 mm 0.05 in1.3 mm
09:41 AM 40.6°F4.8°C 39.2°F4.0°C 95% 4.0 mph NE6.4 kmh NE 8.0 mph12.9 kmh 30.45 in1031.2 mb 0.01 in0.3 mm 0.00 in0.0 mm 0.05 in1.3 mm
09:46 AM 40.6°F4.8°C 39.2°F4.0°C 95% 4.1 mph NE6.6 kmh NE 8.0 mph12.9 kmh 30.45 in1031.2 mb 0.01 in0.3 mm 0.00 in0.0 mm 0.05 in1.3 mm
09:51 AM 40.6°F4.8°C 39.3°F4.1°C 95% 4.4 mph NE7.1 kmh NE 12.0 mph19.3 kmh 30.44 in1030.8 mb 0.02 in0.5 mm 0.12 in3.0 mm 0.06 in1.5 mm
09:56 AM 40.6°F4.8°C 39.2°F4.0°C 95% 3.6 mph NE5.8 kmh NE 12.0 mph19.3 kmh 30.44 in1030.8 mb 0.02 in0.5 mm 0.00 in0.0 mm 0.06 in1.5 mm
10:01 AM 40.7°F4.8°C 39.3°F4.1°C 95% 3.6 mph NE5.8 kmh NE 12.0 mph19.3 kmh 30.44 in1030.8 mb 0.03 in0.8 mm 0.01 in0.3 mm 0.07 in1.8 mm
10:06 AM 40.7°F4.8°C 39.4°F4.1°C 95% 3.7 mph NE6.0 kmh NE 12.0 mph19.3 kmh 30.44 in1030.8 mb 0.03 in0.8 mm 0.00 in0.0 mm 0.07 in1.8 mm
10:11 AM 40.7°F4.8°C 39.3°F4.1°C 95% 5.4 mph NE8.7 kmh NE 12.0 mph19.3 kmh 30.43 in1030.5 mb 0.04 in1.0 mm 0.12 in3.0 mm 0.08 in2.0 mm
10:16 AM 40.7°F4.8°C 39.4°F4.1°C 95% 7.8 mph NE12.6 kmh NE 16.0 mph25.7 kmh 30.43 in1030.5 mb 0.04 in1.0 mm 0.00 in0.0 mm 0.08 in2.0 mm
10:21 AM 40.7°F4.8°C 39.6°F4.2°C 96% 6.5 mph NE10.5 kmh NE 16.0 mph25.7 kmh 30.43 in1030.5 mb 0.04 in1.0 mm 0.00 in0.0 mm 0.08 in2.0 mm
10:26 AM 40.7°F4.8°C 39.6°F4.2°C 96% 5.4 mph NE8.7 kmh NE 16.0 mph25.7 kmh 30.43 in1030.5 mb 0.04 in1.0 mm 0.00 in0.0 mm 0.09 in2.3 mm
10:31 AM 40.7°F4.8°C 39.6°F4.2°C 96% 10.2 mph NE16.4 kmh NE 16.0 mph25.7 kmh 30.42 in1030.1 mb 0.05 in1.3 mm 0.12 in3.0 mm 0.10 in2.5 mm
10:36 AM 40.7°F4.8°C 39.6°F4.2°C 96% 9.5 mph NE15.3 kmh NE 17.0 mph27.4 kmh 30.42 in1030.1 mb 0.05 in1.3 mm 0.00 in0.0 mm 0.10 in2.5 mm
10:42 AM 40.8°F4.9°C 39.7°F4.3°C 96% 6.6 mph NE10.6 kmh NE 17.0 mph27.4 kmh 30.42 in1030.1 mb 0.05 in1.3 mm 0.00 in0.0 mm 0.10 in2.5 mm
10:46 AM 40.8°F4.9°C 39.7°F4.3°C 96% 6.7 mph NE10.8 kmh NE 17.0 mph27.4 kmh 30.42 in1030.1 mb 0.05 in1.3 mm 0.00 in0.0 mm 0.10 in2.5 mm
10:52 AM 40.9°F4.9°C 39.8°F4.3°C 96% 7.7 mph NE12.4 kmh NE 17.0 mph27.4 kmh 30.43 in1030.5 mb 0.05 in1.3 mm 0.00 in0.0 mm 0.11 in2.8 mm
10:57 AM 40.9°F4.9°C 39.8°F4.3°C 96% 6.9 mph NE11.1 kmh NE 13.0 mph20.9 kmh 30.42 in1030.1 mb 0.05 in1.3 mm 0.00 in0.0 mm 0.11 in2.8 mm
11:02 AM 40.9°F4.9°C 39.8°F4.3°C 96% 6.0 mph NE9.7 kmh NE 14.0 mph22.5 kmh 30.42 in1030.1 mb 0.05 in1.3 mm 0.00 in0.0 mm 0.12 in3.0 mm
11:07 AM 40.9°F4.9°C 39.8°F4.3°C 96% 7.6 mph NE12.2 kmh NE 19.0 mph30.6 kmh 30.41 in1029.8 mb 0.05 in1.3 mm 0.00 in0.0 mm 0.12 in3.0 mm
11:12 AM 40.9°F4.9°C 39.8°F4.3°C 96% 9.2 mph NE14.8 kmh NE 19.0 mph30.6 kmh 30.41 in1029.8 mb 0.04 in1.0 mm 0.00 in0.0 mm 0.12 in3.0 mm
11:17 AM 41.0°F5.0°C 39.9°F4.4°C 96% 9.3 mph NE15.0 kmh NE 19.0 mph30.6 kmh 30.40 in1029.5 mb 0.04 in1.0 mm 0.00 in0.0 mm 0.12 in3.0 mm
11:22 AM 41.1°F5.1°C 40.0°F4.4°C 96% 6.5 mph NE10.5 kmh NE 16.0 mph25.7 kmh 30.39 in1029.1 mb 0.04 in1.0 mm 0.00 in0.0 mm 0.12 in3.0 mm
11:27 AM 41.2°F5.1°C 40.1°F4.5°C 96% 8.5 mph ENE13.7 kmh ENE 16.0 mph25.7 kmh 30.38 in1028.8 mb 0.03 in0.8 mm 0.00 in0.0 mm 0.12 in3.0 mm
11:31 AM 41.2°F5.1°C 40.1°F4.5°C 96% 9.1 mph ENE14.6 kmh ENE 17.0 mph27.4 kmh 30.39 in1029.1 mb 0.02 in0.5 mm 0.00 in0.0 mm 0.12 in3.0 mm
11:36 AM 41.2°F5.1°C 40.1°F4.5°C 96% 6.3 mph NE10.1 kmh NE 17.0 mph27.4 kmh 30.39 in1029.1 mb 0.02 in0.5 mm 0.00 in0.0 mm 0.12 in3.0 mm
11:41 AM 41.2°F5.1°C 40.1°F4.5°C 96% 6.8 mph NE10.9 kmh NE 17.0 mph27.4 kmh 30.40 in1029.5 mb 0.02 in0.5 mm 0.00 in0.0 mm 0.12 in3.0 mm
11:46 AM 41.3°F5.2°C 40.2°F4.6°C 96% 7.3 mph NE11.7 kmh NE 17.0 mph27.4 kmh 30.39 in1029.1 mb 0.02 in0.5 mm 0.00 in0.0 mm 0.12 in3.0 mm
11:51 AM 41.3°F5.2°C 40.2°F4.6°C 96% 7.9 mph NE12.7 kmh NE 16.0 mph25.7 kmh 30.38 in1028.8 mb 0.01 in0.3 mm 0.00 in0.0 mm 0.12 in3.0 mm
11:56 AM 41.4°F5.2°C 40.3°F4.6°C 96% 4.6 mph NE7.4 kmh NE 17.0 mph27.4 kmh 30.38 in1028.8 mb 0.01 in0.3 mm 0.00 in0.0 mm 0.12 in3.0 mm
12:01 PM 41.3°F5.2°C 40.2°F4.6°C 96% 9.1 mph NE14.6 kmh NE 17.0 mph27.4 kmh 30.38 in1028.8 mb 0.00 in0.0 mm 0.00 in0.0 mm 0.12 in3.0 mm
12:06 PM 41.4°F5.2°C 40.3°F4.6°C 96% 4.4 mph ENE7.1 kmh ENE 17.0 mph27.4 kmh 30.38 in1028.8 mb 0.00 in0.0 mm 0.00 in0.0 mm 0.12 in3.0 mm
12:11 PM 41.5°F5.3°C 40.4°F4.7°C 96% 5.7 mph NE9.2 kmh NE 17.0 mph27.4 kmh 30.38 in1028.8 mb 0.00 in0.0 mm 0.00 in0.0 mm 0.12 in3.0 mm
12:16 PM 41.5°F5.3°C 40.4°F4.7°C 96% 6.3 mph NE10.1 kmh NE 16.0 mph25.7 kmh 30.37 in1028.4 mb 0.00 in0.0 mm 0.00 in0.0 mm 0.12 in3.0 mm
12:21 PM 41.6°F5.3°C 40.5°F4.7°C 96% 2.6 mph ENE4.2 kmh ENE 14.0 mph22.5 kmh 30.37 in1028.4 mb 0.00 in0.0 mm 0.00 in0.0 mm 0.12 in3.0 mm
12:26 PM 41.6°F5.3°C 40.5°F4.7°C 96% 6.3 mph NE10.1 kmh NE 14.0 mph22.5 kmh 30.36 in1028.1 mb 0.00 in0.0 mm 0.00 in0.0 mm 0.12 in3.0 mm
12:31 PM 41.5°F5.3°C 40.4°F4.7°C 96% 3.6 mph NE5.8 kmh NE 14.0 mph22.5 kmh 30.36 in1028.1 mb 0.00 in0.0 mm 0.00 in0.0 mm 0.12 in3.0 mm
12:36 PM 41.5°F5.3°C 40.4°F4.7°C 96% 4.7 mph ENE7.6 kmh ENE 14.0 mph22.5 kmh 30.36 in1028.1 mb 0.00 in0.0 mm 0.00 in0.0 mm 0.12 in3.0 mm
12:41 PM 41.6°F5.3°C 40.5°F4.7°C 96% 4.8 mph NE7.7 kmh NE 14.0 mph22.5 kmh 30.36 in1028.1 mb 0.00 in0.0 mm 0.00 in0.0 mm 0.12 in3.0 mm
12:46 PM 41.6°F5.3°C 40.5°F4.7°C 96% 6.6 mph ENE10.6 kmh ENE 14.0 mph22.5 kmh 30.35 in1027.8 mb 0.00 in0.0 mm 0.00 in0.0 mm 0.12 in3.0 mm
12:51 PM 41.6°F5.3°C 40.5°F4.7°C 96% 5.7 mph ENE9.2 kmh ENE 15.0 mph24.1 kmh 30.35 in1027.8 mb 0.01 in0.3 mm 0.12 in3.0 mm 0.13 in3.3 mm
12:56 PM 41.6°F5.3°C 40.5°F4.7°C 96% 7.3 mph ENE11.7 kmh ENE 15.0 mph24.1 kmh 30.35 in1027.8 mb 0.01 in0.3 mm 0.00 in0.0 mm 0.13 in3.3 mm
01:01 PM 41.6°F5.3°C 40.5°F4.7°C 96% 3.9 mph NE6.3 kmh NE 15.0 mph24.1 kmh 30.35 in1027.8 mb 0.01 in0.3 mm 0.00 in0.0 mm 0.13 in3.3 mm
01:06 PM 41.6°F5.3°C 40.5°F4.7°C 96% 5.4 mph NE8.7 kmh NE 15.0 mph24.1 kmh 30.35 in1027.8 mb 0.01 in0.3 mm 0.00 in0.0 mm 0.13 in3.3 mm
01:11 PM 41.6°F5.3°C 40.5°F4.7°C 96% 5.4 mph NE8.7 kmh NE 14.0 mph22.5 kmh 30.35 in1027.8 mb 0.02 in0.5 mm 0.12 in3.0 mm 0.14 in3.6 mm
01:16 PM 41.6°F5.3°C 40.5°F4.7°C 96% 5.1 mph NE8.2 kmh NE 14.0 mph22.5 kmh 30.35 in1027.8 mb 0.02 in0.5 mm 0.00 in0.0 mm 0.14 in3.6 mm
01:21 PM 41.6°F5.3°C 40.5°F4.7°C 96% 6.0 mph NE9.7 kmh NE 14.0 mph22.5 kmh 30.34 in1027.4 mb 0.02 in0.5 mm 0.00 in0.0 mm 0.14 in3.6 mm
01:26 PM 41.7°F5.4°C 40.6°F4.8°C 96% 7.5 mph NE12.1 kmh NE 15.0 mph24.1 kmh 30.33 in1027.1 mb 0.03 in0.8 mm 0.12 in3.0 mm 0.15 in3.8 mm
01:31 PM 41.7°F5.4°C 40.6°F4.8°C 96% 5.0 mph NE8.0 kmh NE 15.0 mph24.1 kmh 30.33 in1027.1 mb 0.03 in0.8 mm 0.00 in0.0 mm 0.15 in3.8 mm
01:36 PM 41.7°F5.4°C 40.6°F4.8°C 96% 7.6 mph NE12.2 kmh NE 15.0 mph24.1 kmh 30.33 in1027.1 mb 0.04 in1.0 mm 0.12 in3.0 mm 0.16 in4.1 mm
01:41 PM 41.8°F5.4°C 40.7°F4.8°C 96% 4.6 mph NE7.4 kmh NE 15.0 mph24.1 kmh 30.33 in1027.1 mb 0.04 in1.0 mm 0.00 in0.0 mm 0.16 in4.1 mm
01:46 PM 41.8°F5.4°C 40.7°F4.8°C 96% 3.4 mph ENE5.5 kmh ENE 14.0 mph22.5 kmh 30.33 in1027.1 mb 0.05 in1.3 mm 0.12 in3.0 mm 0.17 in4.3 mm
01:51 PM 41.8°F5.4°C 40.7°F4.8°C 96% 4.3 mph ENE6.9 kmh ENE 14.0 mph22.5 kmh 30.33 in1027.1 mb 0.05 in1.3 mm 0.00 in0.0 mm 0.18 in4.6 mm
01:56 PM 41.8°F5.4°C 40.7°F4.8°C 96% 4.5 mph ENE7.2 kmh ENE 14.0 mph22.5 kmh 30.33 in1027.1 mb 0.06 in1.5 mm 0.12 in3.0 mm 0.19 in4.8 mm
02:01 PM 41.8°F5.4°C 40.7°F4.8°C 96% 3.6 mph ENE5.8 kmh ENE 14.0 mph22.5 kmh 30.33 in1027.1 mb 0.07 in1.8 mm 0.01 in0.3 mm 0.20 in5.1 mm
02:06 PM 41.7°F5.4°C 40.6°F4.8°C 96% 6.0 mph ENE9.7 kmh ENE 14.0 mph22.5 kmh 30.32 in1026.8 mb 0.07 in1.8 mm 0.00 in0.0 mm 0.21 in5.3 mm
02:11 PM 41.7°F5.4°C 40.6°F4.8°C 96% 6.0 mph ENE9.7 kmh ENE 14.0 mph22.5 kmh 30.33 in1027.1 mb 0.08 in2.0 mm 0.12 in3.0 mm 0.22 in5.6 mm
02:16 PM 41.7°F5.4°C 40.6°F4.8°C 96% 4.2 mph ENE6.8 kmh ENE 14.0 mph22.5 kmh 30.32 in1026.8 mb 0.09 in2.3 mm 0.12 in3.0 mm 0.23 in5.8 mm
02:21 PM 41.7°F5.4°C 40.6°F4.8°C 96% 6.5 mph ENE10.5 kmh ENE 13.0 mph20.9 kmh 30.31 in1026.4 mb 0.11 in2.8 mm 0.24 in6.1 mm 0.25 in6.4 mm
02:26 PM 41.7°F5.4°C 40.6°F4.8°C 96% 4.2 mph ENE6.8 kmh ENE 13.0 mph20.9 kmh 30.31 in1026.4 mb 0.10 in2.5 mm 0.00 in0.0 mm 0.25 in6.4 mm
02:31 PM 41.7°F5.4°C 40.6°F4.8°C 96% 5.3 mph ENE8.5 kmh ENE 12.0 mph19.3 kmh 30.30 in1026.1 mb 0.11 in2.8 mm 0.12 in3.0 mm 0.26 in6.6 mm
02:36 PM 41.8°F5.4°C 40.7°F4.8°C 96% 6.3 mph NE10.1 kmh NE 12.0 mph19.3 kmh 30.30 in1026.1 mb 0.10 in2.5 mm 0.00 in0.0 mm 0.26 in6.6 mm
02:41 PM 41.7°F5.4°C 40.6°F4.8°C 96% 5.7 mph NE9.2 kmh NE 12.0 mph19.3 kmh 30.31 in1026.4 mb 0.11 in2.8 mm 0.12 in3.0 mm 0.27 in6.9 mm
02:46 PM 41.6°F5.3°C 40.5°F4.7°C 96% 8.9 mph NE14.3 kmh NE 15.0 mph24.1 kmh 30.30 in1026.1 mb 0.10 in2.5 mm 0.00 in0.0 mm 0.27 in6.9 mm
02:51 PM 41.6°F5.3°C 40.5°F4.7°C 96% 8.6 mph NE13.8 kmh NE 17.0 mph27.4 kmh 30.31 in1026.4 mb 0.10 in2.5 mm 0.00 in0.0 mm 0.28 in7.1 mm
02:56 PM 41.5°F5.3°C 40.4°F4.7°C 96% 6.7 mph NE10.8 kmh NE 17.0 mph27.4 kmh 30.31 in1026.4 mb 0.10 in2.5 mm 0.00 in0.0 mm 0.29 in7.4 mm
03:01 PM 41.5°F5.3°C 40.4°F4.7°C 96% 6.5 mph ENE10.5 kmh ENE 17.0 mph27.4 kmh 30.31 in1026.4 mb 0.10 in2.5 mm 0.00 in0.0 mm 0.30 in7.6 mm
03:06 PM 41.5°F5.3°C 40.4°F4.7°C 96% 5.0 mph NE8.0 kmh NE 17.0 mph27.4 kmh 30.31 in1026.4 mb 0.10 in2.5 mm 0.00 in0.0 mm 0.31 in7.9 mm
03:11 PM 41.4°F5.2°C 40.3°F4.6°C 96% 8.0 mph ENE12.9 kmh ENE 15.0 mph24.1 kmh 30.31 in1026.4 mb 0.10 in2.5 mm 0.00 in0.0 mm 0.32 in8.1 mm
03:16 PM 41.3°F5.2°C 40.2°F4.6°C 96% 5.2 mph ENE8.4 kmh ENE 13.0 mph20.9 kmh 30.31 in1026.4 mb 0.09 in2.3 mm 0.00 in0.0 mm 0.33 in8.4 mm
03:21 PM 41.3°F5.2°C 40.2°F4.6°C 96% 3.0 mph NE4.8 kmh NE 13.0 mph20.9 kmh 30.30 in1026.1 mb 0.10 in2.5 mm 0.12 in3.0 mm 0.35 in8.9 mm
03:26 PM 41.3°F5.2°C 40.2°F4.6°C 96% 5.4 mph ENE8.7 kmh ENE 13.0 mph20.9 kmh 30.30 in1026.1 mb 0.11 in2.8 mm 0.12 in3.0 mm 0.36 in9.1 mm
03:31 PM 41.3°F5.2°C 40.2°F4.6°C 96% 4.4 mph ENE7.1 kmh ENE 11.0 mph17.7 kmh 30.30 in1026.1 mb 0.11 in2.8 mm 0.00 in0.0 mm 0.37 in9.4 mm
03:36 PM 41.3°F5.2°C 40.2°F4.6°C 96% 3.8 mph ENE6.1 kmh ENE 11.0 mph17.7 kmh 30.30 in1026.1 mb 0.11 in2.8 mm 0.00 in0.0 mm 0.37 in9.4 mm
03:41 PM 41.3°F5.2°C 40.5°F4.7°C 97% 4.7 mph ENE7.6 kmh ENE 11.0 mph17.7 kmh 30.31 in1026.4 mb 0.11 in2.8 mm 0.00 in0.0 mm 0.38 in9.7 mm
03:46 PM 41.3°F5.2°C 40.5°F4.7°C 97% 7.2 mph ENE11.6 kmh ENE 14.0 mph22.5 kmh 30.30 in1026.1 mb 0.12 in3.0 mm 0.12 in3.0 mm 0.39 in9.9 mm
03:51 PM 41.3°F5.2°C 40.5°F4.7°C 97% 3.8 mph ENE6.1 kmh ENE 15.0 mph24.1 kmh 30.29 in1025.7 mb 0.12 in3.0 mm 0.00 in0.0 mm 0.40 in10.2 mm
03:56 PM 41.2°F5.1°C 40.4°F4.7°C 97% 7.9 mph ENE12.7 kmh ENE 15.0 mph24.1 kmh 30.29 in1025.7 mb 0.11 in2.8 mm 0.00 in0.0 mm 0.40 in10.2 mm
04:01 PM 41.2°F5.1°C 40.4°F4.7°C 97% 6.8 mph ENE10.9 kmh ENE 15.0 mph24.1 kmh 30.28 in1025.4 mb 0.11 in2.8 mm 0.00 in0.0 mm 0.41 in10.4 mm
04:06 PM 41.2°F5.1°C 40.4°F4.7°C 97% 8.6 mph ENE13.8 kmh ENE 17.0 mph27.4 kmh 30.28 in1025.4 mb 0.11 in2.8 mm 0.00 in0.0 mm 0.42 in10.7 mm
04:11 PM 41.2°F5.1°C 40.1°F4.5°C 96% 5.7 mph ENE9.2 kmh ENE 17.0 mph27.4 kmh 30.28 in1025.4 mb 0.11 in2.8 mm 0.00 in0.0 mm 0.43 in10.9 mm
04:16 PM 41.1°F5.1°C 40.0°F4.4°C 96% 7.7 mph ENE12.4 kmh ENE 22.0 mph35.4 kmh 30.28 in1025.4 mb 0.10 in2.5 mm 0.00 in0.0 mm 0.43 in10.9 mm
04:21 PM 41.1°F5.1°C 40.0°F4.4°C 96% 8.0 mph ENE12.9 kmh ENE 22.0 mph35.4 kmh 30.27 in1025.1 mb 0.09 in2.3 mm 0.00 in0.0 mm 0.44 in11.2 mm
04:26 PM 41.1°F5.1°C 40.0°F4.4°C 96% 6.3 mph ENE10.1 kmh ENE 22.0 mph35.4 kmh 30.27 in1025.1 mb 0.09 in2.3 mm 0.00 in0.0 mm 0.45 in11.4 mm
04:30 PM 41.1°F5.1°C 40.0°F4.4°C 96% 10.7 mph ENE17.2 kmh ENE 22.0 mph35.4 kmh 30.27 in1025.1 mb 0.08 in2.0 mm 0.00 in0.0 mm 0.45 in11.4 mm
04:35 PM 41.1°F5.1°C 40.0°F4.4°C 96% 11.8 mph ENE19.0 kmh ENE 20.0 mph32.2 kmh 30.26 in1024.7 mb 0.09 in2.3 mm 0.12 in3.0 mm 0.46 in11.7 mm
04:40 PM 41.1°F5.1°C 40.0°F4.4°C 96% 6.9 mph ENE11.1 kmh ENE 22.0 mph35.4 kmh 30.26 in1024.7 mb 0.08 in2.0 mm 0.00 in0.0 mm 0.46 in11.7 mm
04:45 PM 41.0°F5.0°C 39.9°F4.4°C 96% 5.8 mph ENE9.3 kmh ENE 22.0 mph35.4 kmh 30.26 in1024.7 mb 0.08 in2.0 mm 0.00 in0.0 mm 0.47 in11.9 mm
04:50 PM 41.0°F5.0°C 39.9°F4.4°C 96% 8.5 mph ENE13.7 kmh ENE 22.0 mph35.4 kmh 30.26 in1024.7 mb 0.08 in2.0 mm 0.00 in0.0 mm 0.48 in12.2 mm
04:55 PM 41.0°F5.0°C 39.9°F4.4°C 96% 6.3 mph ENE10.1 kmh ENE 20.0 mph32.2 kmh 30.26 in1024.7 mb 0.08 in2.0 mm 0.00 in0.0 mm 0.48 in12.2 mm
05:01 PM 41.0°F5.0°C 39.9°F4.4°C 96% 5.7 mph E9.2 kmh E 20.0 mph32.2 kmh 30.26 in1024.7 mb 0.08 in2.0 mm 0.00 in0.0 mm 0.49 in12.4 mm
05:06 PM 41.0°F5.0°C 39.9°F4.4°C 96% 7.6 mph ENE12.2 kmh ENE 18.0 mph29.0 kmh 30.25 in1024.4 mb 0.09 in2.3 mm 0.12 in3.0 mm 0.51 in13.0 mm
05:11 PM 41.0°F5.0°C 39.9°F4.4°C 96% 6.9 mph ENE11.1 kmh ENE 18.0 mph29.0 kmh 30.25 in1024.4 mb 0.10 in2.5 mm 0.12 in3.0 mm 0.52 in13.2 mm
05:16 PM 41.1°F5.1°C 40.0°F4.4°C 96% 10.2 mph ENE16.4 kmh ENE 18.0 mph29.0 kmh 30.26 in1024.7 mb 0.10 in2.5 mm 0.00 in0.0 mm 0.53 in13.5 mm
05:21 PM 41.1°F5.1°C 40.0°F4.4°C 96% 3.7 mph NE6.0 kmh NE 18.0 mph29.0 kmh 30.27 in1025.1 mb 0.10 in2.5 mm 0.00 in0.0 mm 0.54 in13.7 mm
05:26 PM 41.1°F5.1°C 40.0°F4.4°C 96% 3.3 mph ENE5.3 kmh ENE 18.0 mph29.0 kmh 30.27 in1025.1 mb 0.12 in3.0 mm 0.24 in6.1 mm 0.56 in14.2 mm
05:31 PM 41.1°F5.1°C 40.0°F4.4°C 96% 3.5 mph NE5.6 kmh NE 18.0 mph29.0 kmh 30.27 in1025.1 mb 0.12 in3.0 mm 0.00 in0.0 mm 0.57 in14.5 mm
05:36 PM 41.1°F5.1°C 40.0°F4.4°C 96% 4.4 mph ENE7.1 kmh ENE 16.0 mph25.7 kmh 30.26 in1024.7 mb 0.13 in3.3 mm 0.12 in3.0 mm 0.59 in15.0 mm
05:41 PM 41.1°F5.1°C 40.0°F4.4°C 96% 5.1 mph NE8.2 kmh NE 16.0 mph25.7 kmh 30.26 in1024.7 mb 0.14 in3.6 mm 0.12 in3.0 mm 0.60 in15.2 mm
05:46 PM 41.1°F5.1°C 40.0°F4.4°C 96% 6.7 mph ENE10.8 kmh ENE 16.0 mph25.7 kmh 30.26 in1024.7 mb 0.14 in3.6 mm 0.00 in0.0 mm 0.61 in15.5 mm
05:51 PM 41.1°F5.1°C 40.0°F4.4°C 96% 8.9 mph ENE14.3 kmh ENE 16.0 mph25.7 kmh 30.26 in1024.7 mb 0.14 in3.6 mm 0.00 in0.0 mm 0.62 in15.7 mm
05:56 PM 41.1°F5.1°C 40.0°F4.4°C 96% 7.1 mph ENE11.4 kmh ENE 16.0 mph25.7 kmh 30.25 in1024.4 mb 0.16 in4.1 mm 0.24 in6.1 mm 0.64 in16.3 mm
06:01 PM 41.1°F5.1°C 40.0°F4.4°C 96% 8.7 mph ENE14.0 kmh ENE 16.0 mph25.7 kmh 30.25 in1024.4 mb 0.16 in4.1 mm 0.00 in0.0 mm 0.65 in16.5 mm
06:06 PM 41.1°F5.1°C 40.3°F4.6°C 97% 3.8 mph ENE6.1 kmh ENE 16.0 mph25.7 kmh 30.26 in1024.7 mb 0.15 in3.8 mm 0.00 in0.0 mm 0.66 in16.8 mm
06:11 PM 41.1°F5.1°C 40.3°F4.6°C 97% 6.7 mph NE10.8 kmh NE 16.0 mph25.7 kmh 30.25 in1024.4 mb 0.14 in3.6 mm 0.00 in0.0 mm 0.67 in17.0 mm
06:16 PM 41.2°F5.1°C 40.4°F4.7°C 97% 3.0 mph ENE4.8 kmh ENE 15.0 mph24.1 kmh 30.26 in1024.7 mb 0.15 in3.8 mm 0.12 in3.0 mm 0.69 in17.5 mm
06:21 PM 41.2°F5.1°C 40.4°F4.7°C 97% 4.2 mph ENE6.8 kmh ENE 16.0 mph25.7 kmh 30.26 in1024.7 mb 0.16 in4.1 mm 0.12 in3.0 mm 0.71 in18.0 mm
06:26 PM 41.2°F5.1°C 40.4°F4.7°C 97% 7.4 mph ENE11.9 kmh ENE 16.0 mph25.7 kmh 30.26 in1024.7 mb 0.17 in4.3 mm 0.12 in3.0 mm 0.73 in18.5 mm
06:31 PM 41.3°F5.2°C 40.5°F4.7°C 97% 11.7 mph ENE18.8 kmh ENE 25.0 mph40.2 kmh 30.26 in1024.7 mb 0.17 in4.3 mm 0.00 in0.0 mm 0.74 in18.8 mm
06:36 PM 41.4°F5.2°C 40.6°F4.8°C 97% 8.0 mph ENE12.9 kmh ENE 25.0 mph40.2 kmh 30.26 in1024.7 mb 0.16 in4.1 mm 0.00 in0.0 mm 0.75 in19.1 mm
06:41 PM 41.5°F5.3°C 40.4°F4.7°C 96% 8.1 mph ENE13.0 kmh ENE 25.0 mph40.2 kmh 30.26 in1024.7 mb 0.17 in4.3 mm 0.12 in3.0 mm 0.77 in19.6 mm
06:46 PM 41.5°F5.3°C 40.4°F4.7°C 96% 6.0 mph ENE9.7 kmh ENE 20.0 mph32.2 kmh 30.27 in1025.1 mb 0.17 in4.3 mm 0.00 in0.0 mm 0.78 in19.8 mm
06:51 PM 41.5°F5.3°C 40.4°F4.7°C 96% 8.3 mph E13.4 kmh E 20.0 mph32.2 kmh 30.26 in1024.7 mb 0.17 in4.3 mm 0.00 in0.0 mm 0.79 in20.1 mm
06:56 PM 41.5°F5.3°C 40.4°F4.7°C 96% 10.1 mph E16.3 kmh E 17.0 mph27.4 kmh 30.25 in1024.4 mb 0.16 in4.1 mm 0.00 in0.0 mm 0.80 in20.3 mm
07:01 PM 41.4°F5.2°C 40.3°F4.6°C 96% 10.3 mph E16.6 kmh E 17.0 mph27.4 kmh 30.25 in1024.4 mb 0.16 in4.1 mm 0.00 in0.0 mm 0.81 in20.6 mm
07:06 PM 41.4°F5.2°C 40.3°F4.6°C 96% 9.8 mph ENE15.8 kmh ENE 22.0 mph35.4 kmh 30.24 in1024.0 mb 0.16 in4.1 mm 0.00 in0.0 mm 0.82 in20.8 mm
07:11 PM 41.5°F5.3°C 40.4°F4.7°C 96% 11.5 mph E18.5 kmh E 22.0 mph35.4 kmh 30.24 in1024.0 mb 0.15 in3.8 mm 0.00 in0.0 mm 0.82 in20.8 mm
07:16 PM 41.5°F5.3°C 40.4°F4.7°C 96% 14.2 mph ENE22.9 kmh ENE 25.0 mph40.2 kmh 30.22 in1023.4 mb 0.13 in3.3 mm 0.00 in0.0 mm 0.82 in20.8 mm
07:21 PM 41.5°F5.3°C 40.4°F4.7°C 96% 8.4 mph ENE13.5 kmh ENE 25.0 mph40.2 kmh 30.22 in1023.4 mb 0.11 in2.8 mm 0.00 in0.0 mm 0.82 in20.8 mm
07:26 PM 41.5°F5.3°C 40.4°F4.7°C 96% 15.7 mph ENE25.3 kmh ENE 26.0 mph41.8 kmh 30.22 in1023.4 mb 0.09 in2.3 mm 0.00 in0.0 mm 0.82 in20.8 mm
07:31 PM 41.5°F5.3°C 40.4°F4.7°C 96% 11.6 mph E18.7 kmh E 26.0 mph41.8 kmh 30.23 in1023.7 mb 0.08 in2.0 mm 0.00 in0.0 mm 0.82 in20.8 mm
07:36 PM 41.6°F5.3°C 40.5°F4.7°C 96% 12.2 mph ENE19.6 kmh ENE 26.0 mph41.8 kmh 30.23 in1023.7 mb 0.07 in1.8 mm 0.00 in0.0 mm 0.82 in20.8 mm
07:41 PM 41.6°F5.3°C 40.2°F4.6°C 95% 10.3 mph ENE16.6 kmh ENE 26.0 mph41.8 kmh 30.24 in1024.0 mb 0.06 in1.5 mm 0.00 in0.0 mm 0.83 in21.1 mm
07:46 PM 41.6°F5.3°C 40.2°F4.6°C 95% 11.8 mph NE19.0 kmh NE 25.0 mph40.2 kmh 30.24 in1024.0 mb 0.05 in1.3 mm 0.00 in0.0 mm 0.83 in21.1 mm
07:51 PM 41.6°F5.3°C 40.2°F4.6°C 95% 8.6 mph E13.8 kmh E 25.0 mph40.2 kmh 30.24 in1024.0 mb 0.04 in1.0 mm 0.00 in0.0 mm 0.83 in21.1 mm
07:56 PM 41.7°F5.4°C 40.4°F4.7°C 95% 12.6 mph ENE20.3 kmh ENE 25.0 mph40.2 kmh 30.23 in1023.7 mb 0.04 in1.0 mm 0.00 in0.0 mm 0.84 in21.3 mm
08:01 PM 41.6°F5.3°C 40.2°F4.6°C 95% 13.9 mph E22.4 kmh E 26.0 mph41.8 kmh 30.21 in1023.0 mb 0.04 in1.0 mm 0.00 in0.0 mm 0.86 in21.8 mm
08:06 PM 41.7°F5.4°C 40.6°F4.8°C 96% 14.8 mph E23.8 kmh E 26.0 mph41.8 kmh 30.20 in1022.7 mb 0.04 in1.0 mm 0.00 in0.0 mm 0.86 in21.8 mm
08:11 PM 41.7°F5.4°C 40.3°F4.6°C 95% 15.2 mph E24.5 kmh E 26.0 mph41.8 kmh 30.19 in1022.4 mb 0.04 in1.0 mm 0.00 in0.0 mm 0.86 in21.8 mm
08:16 PM 41.7°F5.4°C 40.3°F4.6°C 95% 9.8 mph ENE15.8 kmh ENE 26.0 mph41.8 kmh 30.19 in1022.4 mb 0.04 in1.0 mm 0.00 in0.0 mm 0.86 in21.8 mm
08:21 PM 41.7°F5.4°C 40.4°F4.7°C 95% 9.8 mph ENE15.8 kmh ENE 26.0 mph41.8 kmh 30.20 in1022.7 mb 0.04 in1.0 mm 0.00 in0.0 mm 0.86 in21.8 mm
08:26 PM 41.6°F5.3°C 40.5°F4.7°C 96% 12.0 mph E19.3 kmh E 24.0 mph38.6 kmh 30.20 in1022.7 mb 0.04 in1.0 mm 0.00 in0.0 mm 0.86 in21.8 mm
08:31 PM 41.6°F5.3°C 40.5°F4.7°C 96% 10.9 mph E17.5 kmh E 23.0 mph37.0 kmh 30.21 in1023.0 mb 0.04 in1.0 mm 0.00 in0.0 mm 0.86 in21.8 mm
08:36 PM 41.7°F5.4°C 40.3°F4.6°C 95% 12.5 mph E20.1 kmh E 24.0 mph38.6 kmh 30.22 in1023.4 mb 0.04 in1.0 mm 0.00 in0.0 mm 0.86 in21.8 mm
08:41 PM 41.7°F5.4°C 40.3°F4.6°C 95% 10.4 mph E16.7 kmh E 24.0 mph38.6 kmh 30.22 in1023.4 mb 0.03 in0.8 mm 0.00 in0.0 mm 0.86 in21.8 mm
08:46 PM 41.7°F5.4°C 40.4°F4.7°C 95% 10.9 mph ENE17.5 kmh ENE 24.0 mph38.6 kmh 30.22 in1023.4 mb 0.04 in1.0 mm 0.12 in3.0 mm 0.87 in22.1 mm
08:51 PM 41.6°F5.3°C 40.2°F4.6°C 95% 9.8 mph ENE15.8 kmh ENE 24.0 mph38.6 kmh 30.20 in1022.7 mb 0.05 in1.3 mm 0.12 in3.0 mm 0.88 in22.4 mm
08:56 PM 41.5°F5.3°C 40.1°F4.5°C 95% 13.9 mph E22.4 kmh E 22.0 mph35.4 kmh 30.20 in1022.7 mb 0.04 in1.0 mm 0.00 in0.0 mm 0.88 in22.4 mm
09:01 PM 41.5°F5.3°C 40.4°F4.7°C 96% 12.6 mph ENE20.3 kmh ENE 23.0 mph37.0 kmh 30.20 in1022.7 mb 0.03 in0.8 mm 0.00 in0.0 mm 0.89 in22.6 mm
09:06 PM 41.5°F5.3°C 40.2°F4.6°C 95% 13.5 mph E21.7 kmh E 26.0 mph41.8 kmh 30.19 in1022.4 mb 0.04 in1.0 mm 0.12 in3.0 mm 0.90 in22.9 mm
09:11 PM 41.5°F5.3°C 40.1°F4.5°C 95% 17.7 mph E28.5 kmh E 27.0 mph43.5 kmh 30.19 in1022.4 mb 0.05 in1.3 mm 0.12 in3.0 mm 0.91 in23.1 mm
09:16 PM 41.5°F5.3°C 40.1°F4.5°C 95% 15.5 mph ENE24.9 kmh ENE 27.0 mph43.5 kmh 30.19 in1022.4 mb 0.05 in1.3 mm 0.00 in0.0 mm 0.91 in23.1 mm
09:21 PM 41.5°F5.3°C 40.1°F4.5°C 95% 14.3 mph E23.0 kmh E 27.0 mph43.5 kmh 30.19 in1022.4 mb 0.05 in1.3 mm 0.00 in0.0 mm 0.91 in23.1 mm
09:25 PM 41.5°F5.3°C 40.2°F4.6°C 95% 6.7 mph ENE10.8 kmh ENE 27.0 mph43.5 kmh 30.19 in1022.4 mb 0.05 in1.3 mm 0.00 in0.0 mm 0.91 in23.1 mm
09:30 PM 41.5°F5.3°C 40.2°F4.6°C 95% 8.2 mph ENE13.2 kmh ENE 27.0 mph43.5 kmh 30.19 in1022.4 mb 0.05 in1.3 mm 0.00 in0.0 mm 0.91 in23.1 mm
09:35 PM 41.5°F5.3°C 40.1°F4.5°C 95% 8.1 mph ENE13.0 kmh ENE 22.0 mph35.4 kmh 30.18 in1022.0 mb 0.05 in1.3 mm 0.00 in0.0 mm 0.91 in23.1 mm
09:40 PM 41.4°F5.2°C 40.0°F4.4°C 95% 10.5 mph ENE16.9 kmh ENE 22.0 mph35.4 kmh 30.18 in1022.0 mb 0.05 in1.3 mm 0.00 in0.0 mm 0.91 in23.1 mm
09:45 PM 41.4°F5.2°C 40.0°F4.4°C 95% 10.6 mph E17.1 kmh E 21.0 mph33.8 kmh 30.17 in1021.7 mb 0.04 in1.0 mm 0.00 in0.0 mm 0.91 in23.1 mm
09:50 PM 41.4°F5.2°C 40.1°F4.5°C 95% 15.0 mph ENE24.1 kmh ENE 26.0 mph41.8 kmh 30.16 in1021.3 mb 0.03 in0.8 mm 0.00 in0.0 mm 0.91 in23.1 mm
09:55 PM 41.4°F5.2°C 40.0°F4.4°C 95% 10.9 mph E17.5 kmh E 27.0 mph43.5 kmh 30.16 in1021.3 mb 0.03 in0.8 mm 0.00 in0.0 mm 0.91 in23.1 mm
10:00 PM 41.4°F5.2°C 40.0°F4.4°C 95% 10.1 mph E16.3 kmh E 27.0 mph43.5 kmh 30.17 in1021.7 mb 0.02 in0.5 mm 0.00 in0.0 mm 0.91 in23.1 mm
10:05 PM 41.4°F5.2°C 40.0°F4.4°C 95% 13.4 mph E21.6 kmh E 27.0 mph43.5 kmh 30.18 in1022.0 mb 0.01 in0.3 mm 0.00 in0.0 mm 0.91 in23.1 mm
10:10 PM 41.4°F5.2°C 40.0°F4.4°C 95% 9.7 mph E15.6 kmh E 27.0 mph43.5 kmh 30.17 in1021.7 mb 0.00 in0.0 mm 0.00 in0.0 mm 0.91 in23.1 mm
10:15 PM 41.3°F5.2°C 40.0°F4.4°C 95% 12.8 mph E20.6 kmh E 27.0 mph43.5 kmh 30.17 in1021.7 mb 0.00 in0.0 mm 0.00 in0.0 mm 0.91 in23.1 mm
10:20 PM 41.3°F5.2°C 39.9°F4.4°C 95% 12.9 mph E20.8 kmh E 25.0 mph40.2 kmh 30.16 in1021.3 mb 0.00 in0.0 mm 0.00 in0.0 mm 0.91 in23.1 mm
10:25 PM 41.3°F5.2°C 39.9°F4.4°C 95% 15.6 mph ENE25.1 kmh ENE 25.0 mph40.2 kmh 30.16 in1021.3 mb 0.00 in0.0 mm 0.00 in0.0 mm 0.91 in23.1 mm
10:30 PM 41.2°F5.1°C 39.8°F4.3°C 95% 13.5 mph E21.7 kmh E 25.0 mph40.2 kmh 30.15 in1021.0 mb 0.00 in0.0 mm 0.00 in0.0 mm 0.91 in23.1 mm
10:35 PM 41.2°F5.1°C 39.9°F4.4°C 95% 12.6 mph ENE20.3 kmh ENE 25.0 mph40.2 kmh 30.15 in1021.0 mb 0.00 in0.0 mm 0.00 in0.0 mm 0.91 in23.1 mm
10:40 PM 41.2°F5.1°C 39.8°F4.3°C 95% 11.1 mph E17.9 kmh E 24.0 mph38.6 kmh 30.15 in1021.0 mb 0.00 in0.0 mm 0.00 in0.0 mm 0.91 in23.1 mm
10:45 PM 41.1°F5.1°C 40.0°F4.4°C 96% 10.5 mph ENE16.9 kmh ENE 24.0 mph38.6 kmh 30.15 in1021.0 mb 0.00 in0.0 mm 0.00 in0.0 mm 0.91 in23.1 mm
10:50 PM 41.1°F5.1°C 40.0°F4.4°C 96% 10.9 mph E17.5 kmh E 24.0 mph38.6 kmh 30.15 in1021.0 mb 0.00 in0.0 mm 0.00 in0.0 mm 0.91 in23.1 mm
10:55 PM 41.1°F5.1°C 40.0°F4.4°C 96% 10.3 mph E16.6 kmh E 22.0 mph35.4 kmh 30.15 in1021.0 mb 0.00 in0.0 mm 0.00 in0.0 mm 0.91 in23.1 mm
11:00 PM 41.1°F5.1°C 40.0°F4.4°C 96% 9.8 mph ENE15.8 kmh ENE 22.0 mph35.4 kmh 30.16 in1021.3 mb 0.00 in0.0 mm 0.00 in0.0 mm 0.91 in23.1 mm
11:05 PM 41.1°F5.1°C 40.0°F4.4°C 96% 11.6 mph E18.7 kmh E 22.0 mph35.4 kmh 30.16 in1021.3 mb 0.00 in0.0 mm 0.00 in0.0 mm 0.91 in23.1 mm
11:11 PM 41.1°F5.1°C 40.0°F4.4°C 96% 8.1 mph ENE13.0 kmh ENE 22.0 mph35.4 kmh 30.15 in1021.0 mb 0.00 in0.0 mm 0.00 in0.0 mm 0.91 in23.1 mm
11:16 PM 41.1°F5.1°C 40.0°F4.4°C 96% 7.8 mph ENE12.6 kmh ENE 20.0 mph32.2 kmh 30.14 in1020.7 mb 0.01 in0.3 mm 0.12 in3.0 mm 0.92 in23.4 mm
11:21 PM 41.0°F5.0°C 39.9°F4.4°C 96% 15.3 mph E24.6 kmh E 26.0 mph41.8 kmh 30.14 in1020.7 mb 0.02 in0.5 mm 0.12 in3.0 mm 0.93 in23.6 mm
11:26 PM 41.0°F5.0°C 39.9°F4.4°C 96% 12.0 mph ENE19.3 kmh ENE 26.0 mph41.8 kmh 30.13 in1020.3 mb 0.02 in0.5 mm 0.00 in0.0 mm 0.93 in23.6 mm
11:31 PM 41.0°F5.0°C 39.9°F4.4°C 96% 12.6 mph ENE20.3 kmh ENE 26.0 mph41.8 kmh 30.13 in1020.3 mb 0.02 in0.5 mm 0.00 in0.0 mm 0.93 in23.6 mm
11:36 PM 41.0°F5.0°C 39.9°F4.4°C 96% 7.0 mph ENE11.3 kmh ENE 26.0 mph41.8 kmh 30.14 in1020.7 mb 0.02 in0.5 mm 0.00 in0.0 mm 0.93 in23.6 mm
11:41 PM 41.0°F5.0°C 39.9°F4.4°C 96% 12.9 mph ENE20.8 kmh ENE 24.0 mph38.6 kmh 30.13 in1020.3 mb 0.02 in0.5 mm 0.00 in0.0 mm 0.93 in23.6 mm
11:46 PM 41.0°F5.0°C 39.9°F4.4°C 96% 9.1 mph ENE14.6 kmh ENE 24.0 mph38.6 kmh 30.13 in1020.3 mb 0.03 in0.8 mm 0.12 in3.0 mm 0.94 in23.9 mm
11:51 PM 41.0°F5.0°C 39.9°F4.4°C 96% 7.7 mph ENE12.4 kmh ENE 23.0 mph37.0 kmh 30.12 in1020.0 mb 0.04 in1.0 mm 0.12 in3.0 mm 0.95 in24.1 mm
11:56 PM 40.9°F4.9°C 39.8°F4.3°C 96% 8.4 mph E13.5 kmh E 23.0 mph37.0 kmh 30.13 in1020.3 mb 0.04 in1.0 mm 0.00 in0.0 mm 0.95 in24.1 mm